Aviation Digital Data Service (ADDS)

Output produced by METARs form (1825 UTC 22 November 2017)
found at http://www.aviationweather.gov/adds/metars/
 
ESSA 221820Z 12012KT 9999 -RA FEW011 BKN023 BKN031 02/00 Q1005 R01L/29//62 R01R/29//72 R08/29//71 NOSIG
TAF ESSA 221730Z 2218/2318 11008KT 9999 -RADZ BKN025 
     BECMG 2219/2221 15018G28KT BKN008 
     TEMPO 2221/2303 1400 RADZ BR OVC004 
     PROB40 2303/2307 0300 FG VV002 
     BECMG 2307/2309 18008KT NSC
       
ESNX 221820Z 09007KT 5000 -SN OVC004 M07/M08 Q1013
TAF ESNX 221730Z 2218/2221 10010KT 7000 -SN OVC004 
     TEMPO 2218/2221 2000 SN VV012 
     BECMG 2220/2221 13015G25KT
       
ESCF 221820Z AUTO 13009KT 090V170 9999 -RA OVC006/// 03/02 Q1000 RERA
TAF ESCF 221725Z 2218/2221 13010G20KT 4000 -RADZ BKN003 
     TEMPO 2218/2221 9999 NSW BKN010 
     PROB30 2219/2221 0600 FG VV002 RMK MIL
       
ESDF 221820Z 20008KT 180V240 3000 -SHRA BR BKN002 08/08 Q1001
TAF ESDF 221730Z 2218/2223 14012KT 0600 FG -RA BKN002 
     PROB30 2218/2221 3000 RA BR BKN005 
     BECMG 2221/2223 6000 BR NSC
       
ESGG 221820Z 15010KT 3000 -RA OVC004 04/04 Q0995 R21/29//95
TAF AMD ESGG 221740Z 2218/2318 14010KT 4000 -DZ BR BKN005 
     TEMPO 2218/2220 0250 FG RADZ VV002 
     BECMG 2220/2222 20014KT 8000 NSC 
     PROB40 2222/2301 4000 BKN005 
     TEMPO 2314/2318 3000 RA BKN004
       
ESGJ 221820Z 15012KT 2000 -RA BR VV002 02/02 Q0997
TAF ESGJ 221730Z 2218/2303 15012KT 4000 -RADZ BR BKN005 
     TEMPO 2218/2303 0700 FG VV002 
     BECMG 2222/2224 21010KT 6000 NSC 
     PROB40 2300/2303 2000 BKN005
       
ESGR 221820Z AUTO 16007KT 9999 -RA OVC008/// 03/// Q0997 REDZ
ESGT 221820Z 14010KT 7000 RA OVC006 03/03 Q0994
TAF ESGT 221730Z 2218/2221 15008KT 9000 -RADZ BKN005 
     TEMPO 2218/2221 2000 RADZ BR BKN004
       
ESIB 221820Z AUTO 14011KT 7000 -RA OVC004/// 02/02 Q0995
ESKM 221820Z AUTO 11010KT 1200 R16/P2000N R34/P2000N -SN FEW005/// BKN006/// OVC008/// M00/M01 Q1000
ESKN 221820Z 13017KT 3700 RA OVC006 04/03 Q1003 R26/29//95
TAF ESKN 221730Z 2218/2318 14018G28KT 8000 -RADZ BKN008 
     TEMPO 2218/2222 4000 RADZ BR BKN015 
     TEMPO 2222/2224 1400 RADZ BR OVC004 
     PROB40 2300/2304 0300 FG VV002 
     BECMG 2304/2306 18008KT CAVOK
       
ESMK 221820Z 21010KT 4000 BR OVC003 10/10 Q1001
TAF ESMK 221659Z 2218/2220 19008KT 9999 BKN015 
     TEMPO 2218/2220 3000 -RADZ BR BKN003
       
ESMQ 221820Z 15012KT 4000 BR VV002 07/07 Q1002
TAF ESMQ 221730Z 2218/2223 17012KT 5000 BR BKN002 
     TEMPO 2218/2221 2000 RADZ BKN005 
     BECMG 2221/2223 SCT015
       
ESMS 221820Z 21015KT 2000 BR OVC002 09/09 Q1001 R17/29//95
TAF ESMS 221659Z 2218/2318 21015KT 6000 BR BKN006 
     TEMPO 2218/2220 2000 RADZ BKN002 
     TEMPO 2220/2222 4000 -RADZ BKN012 
     BECMG 2222/2301 SCT030 
     TEMPO 2309/2315 19015G25KT 
     TEMPO 2315/2318 21018G30KT
       
ESMT 221820Z 21018KT 8000 OVC002 09/09 Q0998
TAF ESMT 221659Z 2218/2222 13010KT 2000 BR BKN001 
     TEMPO 2218/2222 6000 -RADZ BKN006 
     BECMG 2218/2220 19010KT
       
ESMX 221820Z 15007KT 2500 RA BR OVC001 05/04 Q1000
TAF ESMX 221730Z 2218/2302 15009KT 4000 -RADZ BR OVC003 
     TEMPO 2218/2221 0500 FG VV002 
     BECMG 2222/2224 6000 NSC 
     PROB40 2300/2302 4000 BKN006
       
ESND 221820Z AUTO 09010KT 1100 R09/P2000N SN VV014 M04/M04 Q1001
ESNG 221820Z 11008KT 2000 R30/P1500N -SN OVC003 M12/M14 Q1019
TAF ESNG 221730Z 2218/2222 11006KT 5000 -SN OVC003 
     TEMPO 2218/2222 1200 SN VV012
       
ESNK 221820Z 14010KT 9999 FEW021 OVC035 01/M00 Q1009
TAF ESNK 221730Z 2218/2221 13007KT 8000 -SN SCT005 BKN020 
     TEMPO 2218/2221 1200 SN VV003 
     BECMG 2219/2221 13015G25KT
       
ESNL 221820Z AUTO 11009KT 8000 SG OVC008/// M03/M05 Q1012 RESG
ESNN 221820Z 12013KT 9999 -SG FEW005 SCT023 BKN034 02/M01 Q1009 R16/79//45
TAF ESNN 221730Z 2218/2302 11012KT 9999 SCT003 BKN030 
     TEMPO 2218/2221 2000 SN VV007 
     BECMG 2218/2220 12015G25KT 
     BECMG 2220/2222 3000 -RA BKN013 
     PROB40 2222/2302 1200 SNRA OVC007
       
ESNO 221820Z 10017KT 9999 BKN011 00/M01 Q1011
TAF ESNO 221730Z 2218/2223 10008KT 6000 -SN SCT003 BKN015 
     PROB40 2218/2223 1200 SN BR VV003 
     BECMG 2218/2220 13015G25KT
       
ESNQ 221820Z 08003KT 7000 -SN OVC003 M13/M14 Q1018
TAF ESNQ 221730Z 2218/2224 09005KT 7000 -SN SCT003 BKN020 
     TEMPO 2218/2224 2000 SN BR VV003
       
ESNS 221820Z 11008KT 9999 -SN OVC008 M03/M03 Q1016
TAF ESNS 221730Z 2218/2222 10008KT 6000 -SN OVC008 
     PROB40 2218/2222 1200 SN SCT008 BKN015 
     BECMG 2219/2221 12015G25KT
       
ESNU 221820Z 11015KT 9999 OVC013 M01/M02 Q1014 R14/75//50
TAF ESNU 221730Z 2218/2303 13012KT 9999 OVC015 
     PROB40 2218/2224 2000 SN VV008 
     BECMG 2218/2220 13015G25KT 
     BECMG 2300/2303 3000 -SN VV008
       
ESNV 221820Z 10016KT 9000 -SN OVC009 M03/M04 Q1008
ESNX 221820Z 09007KT 5000 -SN OVC004 M07/M08 Q1013
TAF ESNX 221730Z 2218/2221 10010KT 7000 -SN OVC004 
     TEMPO 2218/2221 2000 SN VV012 
     BECMG 2220/2221 13015G25KT
       
ESNZ 221820Z 12021KT 2300 SN VV009 M03/M04 Q1001
TAF ESNZ 221730Z 2218/2223 14015KT 5000 -SN BKN020 
     TEMPO 2218/2223 14015G25KT 2000 SN OVC006
       
ESOE 221820Z 11009KT 9999 -RA OVC007 02/02 Q1000
TAF ESOE 221730Z 2218/2301 12014G24KT 1400 RADZ BR OVC003 
     TEMPO 2218/2222 5000 -RADZ OVC005 
     TEMPO 2222/2301 0300 FG
       
ESOK 221820Z 10010KT 9999 -RA OVC003 01/01 Q0996
TAF ESOK 221730Z 2218/2223 12012KT 1400 RADZ BR OVC003 
     TEMPO 2218/2221 6000 -RADZ 
     TEMPO 2221/2223 0300 FG
       
ESOW 221820Z AUTO 12015KT 9999 -RA FEW009/// BKN011/// OVC014/// 02/00 Q1004
ESPA 221820Z 13018KT 9999 -SN BKN016 M03/M05 Q1019
TAF ESPA 221730Z 2218/2224 13015G25KT 8000 -SN BKN015 
     BECMG 2218/2220 BKN006 
     TEMPO 2219/2224 2000 SHSN DRSN VV015 RMK MIL
       
ESPE 221820Z AUTO 10007KT 9999 -SG OVC008/// M08/M09 Q1017
ESSA 221820Z 12012KT 9999 -RA FEW011 BKN023 BKN031 02/00 Q1005 R01L/29//62 R01R/29//72 R08/29//71 NOSIG
TAF ESSA 221730Z 2218/2318 11008KT 9999 -RADZ BKN025 
     BECMG 2219/2221 15018G28KT BKN008 
     TEMPO 2221/2303 1400 RADZ BR OVC004 
     PROB40 2303/2307 0300 FG VV002 
     BECMG 2307/2309 18008KT NSC
       
ESSB 221820Z 12014KT 9999 -RA FEW005 SCT010 BKN012 02/01 Q1006 R12/29//67
TAF ESSB 221730Z 2218/2221 14014G24KT 9999 -RADZ BKN025 
     BECMG 2218/2221 BKN008
       
ESSD 221820Z 12013KT 1900 -SN VV009 M00/M01 Q1002
TAF ESSD 221730Z 2218/2220 11015G25KT 1200 -SN VV006 
     TEMPO 2218/2220 3000 SN BKN012
       
ESSL 221820Z 14012KT 7000 RA BKN006 OVC009 03/03 Q1000
TAF ESSL 221730Z 2218/2222 14010KT 1400 RADZ BR OVC003 
     PROB40 2218/2222 6000 -RADZ OVC005
       
ESSP 221820Z 12012KT 8000 -RA OVC007 04/04 Q1002 R27/290195
TAF ESSP 221730Z 2218/2223 14014G24KT 1400 RADZ BR OVC003 
     TEMPO 2218/2223 6000 -RADZ OVC005
       
ESST 221820Z 11006KT 080V140 2000 -SN SCT008 BKN012 OVC016 00/00 Q0996
ESSV 221820Z 14017KT 4000 -RA OVC005 04/03 Q1005 R21/29//83
TAF ESSV 221730Z 2218/2223 14014G24KT 8000 -RA BKN010 
     BECMG 2218/2220 1400 RADZ BR OVC003 
     PROB40 2220/2223 5000 -RADZ OVC005
       
ESTA 221820Z 19010KT 9000 BR BKN007 ///// Q0999
TAF ESTA 221659Z 2218/2223 14006KT 2000 BR BKN003 
     TEMPO 2218/2221 5000 -RADZ BKN006 
     BECMG 2218/2220 20012KT 
     BECMG 2221/2223 8000 BKN010
       
ESUD 221820Z AUTO 11008KT 070V150 5000 BR OVC006/// M03/M04 Q1010
ESUP 221820Z AUTO 06003KT 9999 NCD ///// Q1022
ESUT 221820Z AUTO 13024G36KT 1000 R33/P2000N -SN VV013 M04/M07 Q1004
ESSD 221820Z 12013KT 1900 -SN VV009 M00/M01 Q1002
TAF ESSD 221730Z 2218/2220 11015G25KT 1200 -SN VV006 
     TEMPO 2218/2220 3000 SN BKN012
       
ESSB 221820Z 12014KT 9999 -RA FEW005 SCT010 BKN012 02/01 Q1006 R12/29//67
TAF ESSB 221730Z 2218/2221 14014G24KT 9999 -RADZ BKN025 
     BECMG 2218/2221 BKN008
       
ESNG 221820Z 11008KT 2000 R30/P1500N -SN OVC003 M12/M14 Q1019
TAF ESNG 221730Z 2218/2222 11006KT 5000 -SN OVC003 
     TEMPO 2218/2222 1200 SN VV012
       
ESMT 221820Z 21018KT 8000 OVC002 09/09 Q0998
TAF ESMT 221659Z 2218/2222 13010KT 2000 BR BKN001 
     TEMPO 2218/2222 6000 -RADZ BKN006 
     BECMG 2218/2220 19010KT
       
ESUT 221820Z AUTO 13024G36KT 1000 R33/P2000N -SN VV013 M04/M07 Q1004
ESGJ 221820Z 15012KT 2000 -RA BR VV002 02/02 Q0997
TAF ESGJ 221730Z 2218/2303 15012KT 4000 -RADZ BR BKN005 
     TEMPO 2218/2303 0700 FG VV002 
     BECMG 2222/2224 21010KT 6000 NSC 
     PROB40 2300/2303 2000 BKN005
       
ESPA 221820Z 13018KT 9999 -SN BKN016 M03/M05 Q1019
TAF ESPA 221730Z 2218/2224 13015G25KT 8000 -SN BKN015 
     BECMG 2218/2220 BKN006 
     TEMPO 2219/2224 2000 SHSN DRSN VV015 RMK MIL
       
ESMQ 221820Z 15012KT 4000 BR VV002 07/07 Q1002
TAF ESMQ 221730Z 2218/2223 17012KT 5000 BR BKN002 
     TEMPO 2218/2221 2000 RADZ BKN005 
     BECMG 2221/2223 SCT015
       
ESOK 221820Z 10010KT 9999 -RA OVC003 01/01 Q0996
TAF ESOK 221730Z 2218/2223 12012KT 1400 RADZ BR OVC003 
     TEMPO 2218/2221 6000 -RADZ 
     TEMPO 2221/2223 0300 FG
       
ESNQ 221820Z 08003KT 7000 -SN OVC003 M13/M14 Q1018
TAF ESNQ 221730Z 2218/2224 09005KT 7000 -SN SCT003 BKN020 
     TEMPO 2218/2224 2000 SN BR VV003
       
ESNK 221820Z 14010KT 9999 FEW021 OVC035 01/M00 Q1009
TAF ESNK 221730Z 2218/2221 13007KT 8000 -SN SCT005 BKN020 
     TEMPO 2218/2221 1200 SN VV003 
     BECMG 2219/2221 13015G25KT
       
ESMK 221820Z 21010KT 4000 BR OVC003 10/10 Q1001
TAF ESMK 221659Z 2218/2220 19008KT 9999 BKN015 
     TEMPO 2218/2220 3000 -RADZ BR BKN003
       
ESMX 221820Z 15007KT 2500 RA BR OVC001 05/04 Q1000
TAF ESMX 221730Z 2218/2302 15009KT 4000 -RADZ BR OVC003 
     TEMPO 2218/2221 0500 FG VV002 
     BECMG 2222/2224 6000 NSC 
     PROB40 2300/2302 4000 BKN006
       
ESSP 221820Z 12012KT 8000 -RA OVC007 04/04 Q1002 R27/290195
TAF ESSP 221730Z 2218/2223 14014G24KT 1400 RADZ BR OVC003 
     TEMPO 2218/2223 6000 -RADZ OVC005
       
ESGG 221820Z 15010KT 3000 -RA OVC004 04/04 Q0995 R21/29//95
TAF AMD ESGG 221740Z 2218/2318 14010KT 4000 -DZ BR BKN005 
     TEMPO 2218/2220 0250 FG RADZ VV002 
     BECMG 2220/2222 20014KT 8000 NSC 
     PROB40 2222/2301 4000 BKN005 
     TEMPO 2314/2318 3000 RA BKN004
       
ESNL 221820Z AUTO 11009KT 8000 SG OVC008/// M03/M05 Q1012 RESG
ESCF 221820Z AUTO 13009KT 090V170 9999 -RA OVC006/// 03/02 Q1000 RERA
TAF ESCF 221725Z 2218/2221 13010G20KT 4000 -RADZ BKN003 
     TEMPO 2218/2221 9999 NSW BKN010 
     PROB30 2219/2221 0600 FG VV002 RMK MIL
       
ESKM 221820Z AUTO 11010KT 1200 R16/P2000N R34/P2000N -SN FEW005/// BKN006/// OVC008/// M00/M01 Q1000
ESOE 221820Z 11009KT 9999 -RA OVC007 02/02 Q1000
TAF ESOE 221730Z 2218/2301 12014G24KT 1400 RADZ BR OVC003 
     TEMPO 2218/2222 5000 -RADZ OVC005 
     TEMPO 2222/2301 0300 FG
       
ESNO 221820Z 10017KT 9999 BKN011 00/M01 Q1011
TAF ESNO 221730Z 2218/2223 10008KT 6000 -SN SCT003 BKN015 
     PROB40 2218/2223 1200 SN BR VV003 
     BECMG 2218/2220 13015G25KT
       
ESUP 221820Z AUTO 06003KT 9999 NCD ///// Q1022
ESDF 221820Z 20008KT 180V240 3000 -SHRA BR BKN002 08/08 Q1001
TAF ESDF 221730Z 2218/2223 14012KT 0600 FG -RA BKN002 
     PROB30 2218/2221 3000 RA BR BKN005 
     BECMG 2221/2223 6000 BR NSC
       
ESSL 221820Z 14012KT 7000 RA BKN006 OVC009 03/03 Q1000
TAF ESSL 221730Z 2218/2222 14010KT 1400 RADZ BR OVC003 
     PROB40 2218/2222 6000 -RADZ OVC005
       
ESIB 221820Z AUTO 14011KT 7000 -RA OVC004/// 02/02 Q0995
ESKN 221820Z 13017KT 3700 RA OVC006 04/03 Q1003 R26/29//95
TAF ESKN 221730Z 2218/2318 14018G28KT 8000 -RADZ BKN008 
     TEMPO 2218/2222 4000 RADZ BR BKN015 
     TEMPO 2222/2224 1400 RADZ BR OVC004 
     PROB40 2300/2304 0300 FG VV002 
     BECMG 2304/2306 18008KT CAVOK
       
ESNS 221820Z 11008KT 9999 -SN OVC008 M03/M03 Q1016
TAF ESNS 221730Z 2218/2222 10008KT 6000 -SN OVC008 
     PROB40 2218/2222 1200 SN SCT008 BKN015 
     BECMG 2219/2221 12015G25KT
       
ESGR 221820Z AUTO 16007KT 9999 -RA OVC008/// 03/// Q0997 REDZ
ESUD 221820Z AUTO 11008KT 070V150 5000 BR OVC006/// M03/M04 Q1010
ESMS 221820Z 21015KT 2000 BR OVC002 09/09 Q1001 R17/29//95
TAF ESMS 221659Z 2218/2318 21015KT 6000 BR BKN006 
     TEMPO 2218/2220 2000 RADZ BKN002 
     TEMPO 2220/2222 4000 -RADZ BKN012 
     BECMG 2222/2301 SCT030 
     TEMPO 2309/2315 19015G25KT 
     TEMPO 2315/2318 21018G30KT
       
ESNN 221820Z 12013KT 9999 -SG FEW005 SCT023 BKN034 02/M01 Q1009 R16/79//45
TAF ESNN 221730Z 2218/2302 11012KT 9999 SCT003 BKN030 
     TEMPO 2218/2221 2000 SN VV007 
     BECMG 2218/2220 12015G25KT 
     BECMG 2220/2222 3000 -RA BKN013 
     PROB40 2222/2302 1200 SNRA OVC007
       
ESND 221820Z AUTO 09010KT 1100 R09/P2000N SN VV014 M04/M04 Q1001
ESST 221820Z 11006KT 080V140 2000 -SN SCT008 BKN012 OVC016 00/00 Q0996
ESGT 221820Z 14010KT 7000 RA OVC006 03/03 Q0994
TAF ESGT 221730Z 2218/2221 15008KT 9000 -RADZ BKN005 
     TEMPO 2218/2221 2000 RADZ BR BKN004
       
ESNU 221820Z 11015KT 9999 OVC013 M01/M02 Q1014 R14/75//50
TAF ESNU 221730Z 2218/2303 13012KT 9999 OVC015 
     PROB40 2218/2224 2000 SN VV008 
     BECMG 2218/2220 13015G25KT 
     BECMG 2300/2303 3000 -SN VV008
       
ESOW 221820Z AUTO 12015KT 9999 -RA FEW009/// BKN011/// OVC014/// 02/00 Q1004
ESPE 221820Z AUTO 10007KT 9999 -SG OVC008/// M08/M09 Q1017
ESNV 221820Z 10016KT 9000 -SN OVC009 M03/M04 Q1008
ESSV 221820Z 14017KT 4000 -RA OVC005 04/03 Q1005 R21/29//83
TAF ESSV 221730Z 2218/2223 14014G24KT 8000 -RA BKN010 
     BECMG 2218/2220 1400 RADZ BR OVC003 
     PROB40 2220/2223 5000 -RADZ OVC005